KMHR/MHR METAR and TAF weather

Enter ICAO airport designator
Station Type Date Time Source
KMHR METAR 2018/12/17 15:48 UTC NOAA

KMHR 171548Z 12005KT 10SM OVC024 10/09 A3019


Station Type Date Time Source
KMHR Decoded METAR 2018/12/17 15:48 UTC NOAA

Sacramento, Sacramento Mather Airport, CA, United States (KMHR) 38-33N 121-18W
Dec 17, 2018 - 10:48 AM EST / 2018.12.17 1548 UTC
Wind: from the ESE (120 degrees) at 6 MPH (5 KT):0
Visibility: 10 mile(s):0
Sky conditions: overcast
Temperature: 50 F (10 C)
Dew Point: 48 F (9 C)
Relative Humidity: 93%
Pressure (altimeter): 30.19 in. Hg (1022 hPa)
ob: KMHR 171548Z 12005KT 10SM OVC024 10/09 A3019
cycle: 16

Station Type Date Time Source
KMHR TAF 2018/12/17 16:27 UTC NOAA

TAF
AMD KMHR 171625Z 1716/1812 12005KT P6SM BKN020
FM180200 VRB03KT P6SM SCT020 BKN150
FM180600 15003KT 4SM BR SCT250


Example: see airport list